sensor_id;sensor_type;location;lat;lon;timestamp;temperature;humidity
60234;DHT22;49514;43.538;-5.708;2023-04-01T00:01:26;15.40;99.90
60234;DHT22;49514;43.538;-5.708;2023-04-01T00:03:53;15.30;99.90
60234;DHT22;49514;43.538;-5.708;2023-04-01T00:06:20;15.30;99.90
60234;DHT22;49514;43.538;-5.708;2023-04-01T00:08:47;15.30;99.90
60234;DHT22;49514;43.538;-5.708;2023-04-01T00:11:14;15.30;99.90
60234;DHT22;49514;43.538;-5.708;2023-04-01T00:13:42;15.30;99.90
60234;DHT22;49514;43.538;-5.708;2023-04-01T00:16:08;15.30;99.90
60234;DHT22;49514;43.538;-5.708;2023-04-01T00:18:35;15.30;99.90
60234;DHT22;49514;43.538;-5.708;2023-04-01T00:21:02;15.40;99.90
60234;DHT22;49514;43.538;-5.708;2023-04-01T00:23:29;15.30;99.90
60234;DHT22;49514;43.538;-5.708;2023-04-01T00:25:55;15.30;99.90
60234;DHT22;49514;43.538;-5.708;2023-04-01T00:28:22;15.30;99.90
60234;DHT22;49514;43.538;-5.708;2023-04-01T00:30:49;15.30;99.90
60234;DHT22;49514;43.538;-5.708;2023-04-01T00:33:15;15.30;99.90
60234;DHT22;49514;43.538;-5.708;2023-04-01T00:35:43;15.20;99.90
60234;DHT22;49514;43.538;-5.708;2023-04-01T00:38:10;15.20;99.90
60234;DHT22;49514;43.538;-5.708;2023-04-01T00:40:43;15.20;99.90
60234;DHT22;49514;43.538;-5.708;2023-04-01T00:43:13;15.20;99.90
60234;DHT22;49514;43.538;-5.708;2023-04-01T00:45:43;15.20;99.90
60234;DHT22;49514;43.538;-5.708;2023-04-01T00:48:25;15.10;99.90
60234;DHT22;49514;43.538;-5.708;2023-04-01T00:51:04;15.10;99.90
60234;DHT22;49514;43.538;-5.708;2023-04-01T00:53:37;15.10;99.90
60234;DHT22;49514;43.538;-5.708;2023-04-01T00:56:13;15.10;99.90
60234;DHT22;49514;43.538;-5.708;2023-04-01T00:58:46;15.10;99.90
60234;DHT22;49514;43.538;-5.708;2023-04-01T01:01:15;15.10;99.90
60234;DHT22;49514;43.538;-5.708;2023-04-01T01:03:42;15.00;99.90
60234;DHT22;49514;43.538;-5.708;2023-04-01T01:11:48;15.00;99.90
60234;DHT22;49514;43.538;-5.708;2023-04-01T01:14:24;15.00;99.90
60234;DHT22;49514;43.538;-5.708;2023-04-01T01:16:58;15.00;99.90
60234;DHT22;49514;43.538;-5.708;2023-04-01T01:19:48;14.90;99.90
60234;DHT22;49514;43.538;-5.708;2023-04-01T01:22:22;14.90;99.90
60234;DHT22;49514;43.538;-5.708;2023-04-01T01:27:20;14.90;99.90
60234;DHT22;49514;43.538;-5.708;2023-04-01T01:29:55;14.90;99.90
60234;DHT22;49514;43.538;-5.708;2023-04-01T01:32:50;14.90;99.90
60234;DHT22;49514;43.538;-5.708;2023-04-01T01:35:27;14.90;99.90
60234;DHT22;49514;43.538;-5.708;2023-04-01T01:38:21;14.90;99.90
60234;DHT22;49514;43.538;-5.708;2023-04-01T01:40:55;14.90;99.90
60234;DHT22;49514;43.538;-5.708;2023-04-01T01:43:32;14.90;99.90
60234;DHT22;49514;43.538;-5.708;2023-04-01T01:46:03;14.90;99.90
60234;DHT22;49514;43.538;-5.708;2023-04-01T01:48:34;14.90;99.90
60234;DHT22;49514;43.538;-5.708;2023-04-01T01:51:04;15.00;99.90
60234;DHT22;49514;43.538;-5.708;2023-04-01T01:53:31;14.90;99.90
60234;DHT22;49514;43.538;-5.708;2023-04-01T01:55:58;15.00;99.90
60234;DHT22;49514;43.538;-5.708;2023-04-01T01:58:35;15.00;99.90
60234;DHT22;49514;43.538;-5.708;2023-04-01T02:01:17;15.00;99.90
60234;DHT22;49514;43.538;-5.708;2023-04-01T02:03:47;15.00;99.90
60234;DHT22;49514;43.538;-5.708;2023-04-01T02:06:17;15.00;99.90
60234;DHT22;49514;43.538;-5.708;2023-04-01T02:09:00;15.00;99.90
60234;DHT22;49514;43.538;-5.708;2023-04-01T02:11:43;14.90;99.90
60234;DHT22;49514;43.538;-5.708;2023-04-01T02:14:25;14.90;99.90
60234;DHT22;49514;43.538;-5.708;2023-04-01T02:17:06;14.90;99.90
60234;DHT22;49514;43.538;-5.708;2023-04-01T02:19:39;14.90;99.90
60234;DHT22;49514;43.538;-5.708;2023-04-01T02:22:11;14.80;99.90
60234;DHT22;49514;43.538;-5.708;2023-04-01T02:24:40;14.80;99.90
60234;DHT22;49514;43.538;-5.708;2023-04-01T02:27:09;14.80;99.90
60234;DHT22;49514;43.538;-5.708;2023-04-01T02:29:36;14.70;99.90
60234;DHT22;49514;43.538;-5.708;2023-04-01T02:32:08;14.70;99.90
60234;DHT22;49514;43.538;-5.708;2023-04-01T02:34:36;14.60;99.90
60234;DHT22;49514;43.538;-5.708;2023-04-01T02:37:03;14.50;99.90
60234;DHT22;49514;43.538;-5.708;2023-04-01T02:39:30;14.40;99.90
60234;DHT22;49514;43.538;-5.708;2023-04-01T02:41:57;14.40;99.90
60234;DHT22;49514;43.538;-5.708;2023-04-01T02:44:24;14.30;99.90
60234;DHT22;49514;43.538;-5.708;2023-04-01T02:46:51;14.10;99.90
60234;DHT22;49514;43.538;-5.708;2023-04-01T02:49:19;14.10;99.90
60234;DHT22;49514;43.538;-5.708;2023-04-01T02:51:46;14.00;99.90
60234;DHT22;49514;43.538;-5.708;2023-04-01T02:54:13;14.00;99.90
60234;DHT22;49514;43.538;-5.708;2023-04-01T02:56:40;14.00;99.90
60234;DHT22;49514;43.538;-5.708;2023-04-01T02:59:07;13.90;99.90
60234;DHT22;49514;43.538;-5.708;2023-04-01T03:01:33;13.90;99.90
60234;DHT22;49514;43.538;-5.708;2023-04-01T03:04:00;13.90;99.90
60234;DHT22;49514;43.538;-5.708;2023-04-01T03:06:26;13.90;99.90
60234;DHT22;49514;43.538;-5.708;2023-04-01T03:11:20;13.90;99.90
60234;DHT22;49514;43.538;-5.708;2023-04-01T03:13:47;13.80;99.90
60234;DHT22;49514;43.538;-5.708;2023-04-01T03:16:15;13.80;99.90
60234;DHT22;49514;43.538;-5.708;2023-04-01T03:18:42;13.80;99.90
60234;DHT22;49514;43.538;-5.708;2023-04-01T03:21:23;13.80;99.90
60234;DHT22;49514;43.538;-5.708;2023-04-01T03:23:51;13.70;99.90
60234;DHT22;49514;43.538;-5.708;2023-04-01T03:26:18;13.80;99.90
60234;DHT22;49514;43.538;-5.708;2023-04-01T03:28:45;13.80;99.90
60234;DHT22;49514;43.538;-5.708;2023-04-01T03:31:12;13.80;99.90
60234;DHT22;49514;43.538;-5.708;2023-04-01T03:33:46;13.70;99.90
60234;DHT22;49514;43.538;-5.708;2023-04-01T03:36:13;13.70;99.90
60234;DHT22;49514;43.538;-5.708;2023-04-01T03:38:43;13.70;99.90
60234;DHT22;49514;43.538;-5.708;2023-04-01T03:41:17;13.70;99.90
60234;DHT22;49514;43.538;-5.708;2023-04-01T03:43:44;13.80;99.90
60234;DHT22;49514;43.538;-5.708;2023-04-01T03:46:16;13.70;99.90
60234;DHT22;49514;43.538;-5.708;2023-04-01T03:48:42;13.70;99.90
60234;DHT22;49514;43.538;-5.708;2023-04-01T03:51:09;13.80;99.90
60234;DHT22;49514;43.538;-5.708;2023-04-01T03:53:36;13.80;99.90
60234;DHT22;49514;43.538;-5.708;2023-04-01T03:56:06;13.80;99.90
60234;DHT22;49514;43.538;-5.708;2023-04-01T03:58:35;13.70;99.90
60234;DHT22;49514;43.538;-5.708;2023-04-01T04:01:12;13.60;99.90
60234;DHT22;49514;43.538;-5.708;2023-04-01T04:03:39;13.60;99.90
60234;DHT22;49514;43.538;-5.708;2023-04-01T04:06:05;13.60;99.90
60234;DHT22;49514;43.538;-5.708;2023-04-01T04:08:32;13.60;99.90
60234;DHT22;49514;43.538;-5.708;2023-04-01T04:10:59;13.50;99.90
60234;DHT22;49514;43.538;-5.708;2023-04-01T04:13:26;13.50;99.90
60234;DHT22;49514;43.538;-5.708;2023-04-01T04:15:59;13.50;99.90
60234;DHT22;49514;43.538;-5.708;2023-04-01T04:18:26;13.50;99.90
60234;DHT22;49514;43.538;-5.708;2023-04-01T04:20:52;13.40;99.90
60234;DHT22;49514;43.538;-5.708;2023-04-01T04:23:20;13.40;99.90
60234;DHT22;49514;43.538;-5.708;2023-04-01T04:26:06;13.30;99.90
60234;DHT22;49514;43.538;-5.708;2023-04-01T04:28:34;13.30;99.90
60234;DHT22;49514;43.538;-5.708;2023-04-01T04:31:02;13.30;99.90
60234;DHT22;49514;43.538;-5.708;2023-04-01T04:33:32;13.20;99.90
60234;DHT22;49514;43.538;-5.708;2023-04-01T04:36:01;13.20;99.90
60234;DHT22;49514;43.538;-5.708;2023-04-01T04:38:28;13.30;99.90
60234;DHT22;49514;43.538;-5.708;2023-04-01T04:40:55;13.30;99.90
60234;DHT22;49514;43.538;-5.708;2023-04-01T04:43:22;13.20;99.90
60234;DHT22;49514;43.538;-5.708;2023-04-01T04:45:50;13.20;99.90
60234;DHT22;49514;43.538;-5.708;2023-04-01T04:48:17;13.30;99.90
60234;DHT22;49514;43.538;-5.708;2023-04-01T04:50:48;13.30;99.90
60234;DHT22;49514;43.538;-5.708;2023-04-01T04:53:17;13.30;99.90
60234;DHT22;49514;43.538;-5.708;2023-04-01T04:55:48;13.30;99.90
60234;DHT22;49514;43.538;-5.708;2023-04-01T04:58:30;13.30;99.90
60234;DHT22;49514;43.538;-5.708;2023-04-01T05:00:57;13.30;99.90
60234;DHT22;49514;43.538;-5.708;2023-04-01T05:03:28;13.30;99.90
60234;DHT22;49514;43.538;-5.708;2023-04-01T05:05:54;13.30;99.90
60234;DHT22;49514;43.538;-5.708;2023-04-01T05:08:21;13.30;99.90
60234;DHT22;49514;43.538;-5.708;2023-04-01T05:10:48;13.30;99.90
60234;DHT22;49514;43.538;-5.708;2023-04-01T05:13:14;13.30;99.90
60234;DHT22;49514;43.538;-5.708;2023-04-01T05:15:42;13.30;99.90
60234;DHT22;49514;43.538;-5.708;2023-04-01T05:18:09;13.30;99.90
60234;DHT22;49514;43.538;-5.708;2023-04-01T05:20:36;13.40;99.90
60234;DHT22;49514;43.538;-5.708;2023-04-01T05:23:03;13.40;99.90
60234;DHT22;49514;43.538;-5.708;2023-04-01T05:25:29;13.40;99.90
60234;DHT22;49514;43.538;-5.708;2023-04-01T05:27:56;13.50;99.90
60234;DHT22;49514;43.538;-5.708;2023-04-01T05:30:23;13.50;99.90
60234;DHT22;49514;43.538;-5.708;2023-04-01T05:33:00;13.50;99.90
60234;DHT22;49514;43.538;-5.708;2023-04-01T05:35:28;13.50;99.90
60234;DHT22;49514;43.538;-5.708;2023-04-01T05:37:54;13.60;99.90
60234;DHT22;49514;43.538;-5.708;2023-04-01T05:40:21;13.50;99.90
60234;DHT22;49514;43.538;-5.708;2023-04-01T05:42:48;13.50;99.90
60234;DHT22;49514;43.538;-5.708;2023-04-01T05:45:16;13.60;99.90
60234;DHT22;49514;43.538;-5.708;2023-04-01T05:48:06;13.50;99.90
60234;DHT22;49514;43.538;-5.708;2023-04-01T05:50:40;13.50;99.90
60234;DHT22;49514;43.538;-5.708;2023-04-01T05:53:09;13.50;99.90
60234;DHT22;49514;43.538;-5.708;2023-04-01T05:55:37;13.60;99.90
60234;DHT22;49514;43.538;-5.708;2023-04-01T05:58:05;13.50;99.90
60234;DHT22;49514;43.538;-5.708;2023-04-01T06:00:32;13.50;99.90
60234;DHT22;49514;43.538;-5.708;2023-04-01T06:03:00;13.50;99.90
60234;DHT22;49514;43.538;-5.708;2023-04-01T06:05:29;13.50;99.90
60234;DHT22;49514;43.538;-5.708;2023-04-01T06:08:05;13.50;99.90
60234;DHT22;49514;43.538;-5.708;2023-04-01T06:22:04;13.50;99.90
60234;DHT22;49514;43.538;-5.708;2023-04-01T06:24:49;13.50;99.90
60234;DHT22;49514;43.538;-5.708;2023-04-01T06:30:44;13.40;99.90
60234;DHT22;49514;43.538;-5.708;2023-04-01T06:51:07;13.60;99.90
60234;DHT22;49514;43.538;-5.708;2023-04-01T06:54:21;13.60;99.90
60234;DHT22;49514;43.538;-5.708;2023-04-01T06:57:22;13.60;99.90
60234;DHT22;49514;43.538;-5.708;2023-04-01T06:59:52;13.60;99.90
60234;DHT22;49514;43.538;-5.708;2023-04-01T07:02:43;13.70;99.90
60234;DHT22;49514;43.538;-5.708;2023-04-01T07:05:12;13.80;99.90
60234;DHT22;49514;43.538;-5.708;2023-04-01T07:07:49;13.90;99.90
60234;DHT22;49514;43.538;-5.708;2023-04-01T07:10:31;13.80;99.90
60234;DHT22;49514;43.538;-5.708;2023-04-01T07:13:31;13.80;99.90
60234;DHT22;49514;43.538;-5.708;2023-04-01T07:16:30;13.90;99.90
60234;DHT22;49514;43.538;-5.708;2023-04-01T07:19:59;13.90;99.90
60234;DHT22;49514;43.538;-5.708;2023-04-01T07:22:29;13.90;99.90
60234;DHT22;49514;43.538;-5.708;2023-04-01T07:25:22;14.10;99.90
60234;DHT22;49514;43.538;-5.708;2023-04-01T07:28:06;14.20;99.90
60234;DHT22;49514;43.538;-5.708;2023-04-01T07:31:31;14.20;99.90
60234;DHT22;49514;43.538;-5.708;2023-04-01T07:36:31;14.20;99.90
60234;DHT22;49514;43.538;-5.708;2023-04-01T07:45:03;14.20;99.90
60234;DHT22;49514;43.538;-5.708;2023-04-01T08:04:55;14.90;99.90
60234;DHT22;49514;43.538;-5.708;2023-04-01T08:10:49;15.10;99.90
60234;DHT22;49514;43.538;-5.708;2023-04-01T08:14:08;15.00;99.90
60234;DHT22;49514;43.538;-5.708;2023-04-01T08:17:38;14.80;99.90
60234;DHT22;49514;43.538;-5.708;2023-04-01T08:22:47;14.80;99.90
60234;DHT22;49514;43.538;-5.708;2023-04-01T08:25:25;14.90;99.90
60234;DHT22;49514;43.538;-5.708;2023-04-01T08:30:52;15.20;99.90
60234;DHT22;49514;43.538;-5.708;2023-04-01T08:33:25;15.40;99.90
60234;DHT22;49514;43.538;-5.708;2023-04-01T08:36:36;15.40;99.90
60234;DHT22;49514;43.538;-5.708;2023-04-01T08:39:52;15.50;99.90
60234;DHT22;49514;43.538;-5.708;2023-04-01T08:57:07;15.20;99.90
60234;DHT22;49514;43.538;-5.708;2023-04-01T09:11:17;15.70;99.90
60234;DHT22;49514;43.538;-5.708;2023-04-01T09:14:26;15.70;99.90
60234;DHT22;49514;43.538;-5.708;2023-04-01T09:43:03;15.60;99.90
60234;DHT22;49514;43.538;-5.708;2023-04-01T09:51:46;15.80;99.90
60234;DHT22;49514;43.538;-5.708;2023-04-01T10:00:35;16.10;99.90
60234;DHT22;49514;43.538;-5.708;2023-04-01T10:20:09;17.20;99.90
60234;DHT22;49514;43.538;-5.708;2023-04-01T10:31:27;16.70;99.90
60234;DHT22;49514;43.538;-5.708;2023-04-01T10:46:21;17.00;99.90
60234;DHT22;49514;43.538;-5.708;2023-04-01T10:49:05;16.80;99.90
60234;DHT22;49514;43.538;-5.708;2023-04-01T10:55:24;16.70;99.90
60234;DHT22;49514;43.538;-5.708;2023-04-01T11:31:43;17.30;99.90
60234;DHT22;49514;43.538;-5.708;2023-04-01T11:36:59;17.90;99.90
60234;DHT22;49514;43.538;-5.708;2023-04-01T11:39:41;17.80;99.90
60234;DHT22;49514;43.538;-5.708;2023-04-01T11:45:28;18.10;99.90
60234;DHT22;49514;43.538;-5.708;2023-04-01T11:53:25;18.10;99.90
60234;DHT22;49514;43.538;-5.708;2023-04-01T12:03:51;17.40;99.90
60234;DHT22;49514;43.538;-5.708;2023-04-01T12:25:00;17.30;99.90
60234;DHT22;49514;43.538;-5.708;2023-04-01T12:30:24;17.30;99.90
60234;DHT22;49514;43.538;-5.708;2023-04-01T12:37:55;18.30;99.90
60234;DHT22;49514;43.538;-5.708;2023-04-01T12:46:03;18.20;99.90
60234;DHT22;49514;43.538;-5.708;2023-04-01T13:07:46;15.50;99.90
60234;DHT22;49514;43.538;-5.708;2023-04-01T13:16:01;15.80;99.90
60234;DHT22;49514;43.538;-5.708;2023-04-01T13:18:52;15.80;99.90
60234;DHT22;49514;43.538;-5.708;2023-04-01T13:24:36;16.10;99.90
60234;DHT22;49514;43.538;-5.708;2023-04-01T13:27:25;17.50;99.90
60234;DHT22;49514;43.538;-5.708;2023-04-01T13:32:50;19.10;99.90
60234;DHT22;49514;43.538;-5.708;2023-04-01T13:40:26;28.90;82.50
60234;DHT22;49514;43.538;-5.708;2023-04-01T13:43:09;29.10;73.10
60234;DHT22;49514;43.538;-5.708;2023-04-01T13:59:02;32.60;62.20
60234;DHT22;49514;43.538;-5.708;2023-04-01T14:01:39;33.30;59.40
60234;DHT22;49514;43.538;-5.708;2023-04-01T14:12:30;32.30;54.10
60234;DHT22;49514;43.538;-5.708;2023-04-01T14:20:27;26.90;63.40
60234;DHT22;49514;43.538;-5.708;2023-04-01T14:33:06;22.90;73.40
60234;DHT22;49514;43.538;-5.708;2023-04-01T14:38:51;25.10;76.10
60234;DHT22;49514;43.538;-5.708;2023-04-01T14:44:11;31.60;66.60
60234;DHT22;49514;43.538;-5.708;2023-04-01T14:54:42;32.60;58.40
60234;DHT22;49514;43.538;-5.708;2023-04-01T14:57:14;30.40;58.70
60234;DHT22;49514;43.538;-5.708;2023-04-01T15:00:36;27.90;60.90
60234;DHT22;49514;43.538;-5.708;2023-04-01T15:03:08;25.10;64.40
60234;DHT22;49514;43.538;-5.708;2023-04-01T15:08:33;21.20;73.20
60234;DHT22;49514;43.538;-5.708;2023-04-01T15:25:02;19.20;85.80
60234;DHT22;49514;43.538;-5.708;2023-04-01T15:27:58;19.20;88.10
60234;DHT22;49514;43.538;-5.708;2023-04-01T15:43:40;22.80;77.30
60234;DHT22;49514;43.538;-5.708;2023-04-01T16:00:41;27.60;63.30
60234;DHT22;49514;43.538;-5.708;2023-04-01T16:06:11;29.20;60.50
60234;DHT22;49514;43.538;-5.708;2023-04-01T16:09:02;28.10;61.00
60234;DHT22;49514;43.538;-5.708;2023-04-01T16:25:21;26.40;60.10
60234;DHT22;49514;43.538;-5.708;2023-04-01T16:34:03;21.90;68.40
60234;DHT22;49514;43.538;-5.708;2023-04-01T16:45:45;19.40;80.30
60234;DHT22;49514;43.538;-5.708;2023-04-01T16:51:03;19.10;83.00
60234;DHT22;49514;43.538;-5.708;2023-04-01T16:54:05;18.50;86.70
60234;DHT22;49514;43.538;-5.708;2023-04-01T16:56:43;18.40;84.20
60234;DHT22;49514;43.538;-5.708;2023-04-01T16:59:36;18.40;81.50
60234;DHT22;49514;43.538;-5.708;2023-04-01T17:04:57;18.40;83.20
60234;DHT22;49514;43.538;-5.708;2023-04-01T17:07:31;19.40;81.50
60234;DHT22;49514;43.538;-5.708;2023-04-01T17:21:16;19.70;79.90
60234;DHT22;49514;43.538;-5.708;2023-04-01T17:32:18;18.30;82.40
60234;DHT22;49514;43.538;-5.708;2023-04-01T17:35:19;18.20;84.30
60234;DHT22;49514;43.538;-5.708;2023-04-01T17:38:17;18.00;85.60
60234;DHT22;49514;43.538;-5.708;2023-04-01T17:49:29;17.40;90.30
60234;DHT22;49514;43.538;-5.708;2023-04-01T18:11:43;16.30;94.20
60234;DHT22;49514;43.538;-5.708;2023-04-01T18:22:23;15.60;96.70
60234;DHT22;49514;43.538;-5.708;2023-04-01T18:25:12;15.50;97.40
60234;DHT22;49514;43.538;-5.708;2023-04-01T18:31:36;15.30;96.90
60234;DHT22;49514;43.538;-5.708;2023-04-01T18:33:49;15.30;97.10
60234;DHT22;49514;43.538;-5.708;2023-04-01T18:39:10;15.00;98.20
60234;DHT22;49514;43.538;-5.708;2023-04-01T18:41:50;15.00;97.40
60234;DHT22;49514;43.538;-5.708;2023-04-01T18:50:53;14.70;98.00
60234;DHT22;49514;43.538;-5.708;2023-04-01T18:53:29;14.60;98.30
60234;DHT22;49514;43.538;-5.708;2023-04-01T18:56:12;14.50;98.40
60234;DHT22;49514;43.538;-5.708;2023-04-01T19:01:33;14.30;99.50
60234;DHT22;49514;43.538;-5.708;2023-04-01T19:04:30;14.30;99.10
60234;DHT22;49514;43.538;-5.708;2023-04-01T19:07:01;14.30;98.40
60234;DHT22;49514;43.538;-5.708;2023-04-01T19:09:43;14.20;98.90
60234;DHT22;49514;43.538;-5.708;2023-04-01T19:12:28;14.20;99.80
60234;DHT22;49514;43.538;-5.708;2023-04-01T19:18:22;14.00;99.90
60234;DHT22;49514;43.538;-5.708;2023-04-01T19:29:05;13.80;99.90
60234;DHT22;49514;43.538;-5.708;2023-04-01T19:32:13;13.80;99.90
60234;DHT22;49514;43.538;-5.708;2023-04-01T19:46:48;13.70;99.90
60234;DHT22;49514;43.538;-5.708;2023-04-01T19:51:49;13.70;99.90
60234;DHT22;49514;43.538;-5.708;2023-04-01T19:57:24;13.70;99.90
60234;DHT22;49514;43.538;-5.708;2023-04-01T20:08:22;13.50;99.90
60234;DHT22;49514;43.538;-5.708;2023-04-01T20:11:06;13.50;99.90
60234;DHT22;49514;43.538;-5.708;2023-04-01T20:19:34;13.40;99.90
60234;DHT22;49514;43.538;-5.708;2023-04-01T20:24:52;13.30;99.90
60234;DHT22;49514;43.538;-5.708;2023-04-01T20:27:25;13.20;99.90
60234;DHT22;49514;43.538;-5.708;2023-04-01T20:30:16;13.30;99.90
60234;DHT22;49514;43.538;-5.708;2023-04-01T20:41:19;13.30;99.90
60234;DHT22;49514;43.538;-5.708;2023-04-01T20:55:28;13.00;99.90
60234;DHT22;49514;43.538;-5.708;2023-04-01T21:09:04;12.80;99.90
60234;DHT22;49514;43.538;-5.708;2023-04-01T21:23:35;12.60;99.90
60234;DHT22;49514;43.538;-5.708;2023-04-01T21:49:42;12.50;99.90
60234;DHT22;49514;43.538;-5.708;2023-04-01T21:55:23;12.40;99.90
60234;DHT22;49514;43.538;-5.708;2023-04-01T22:09:02;12.30;99.90
60234;DHT22;49514;43.538;-5.708;2023-04-01T22:11:42;12.30;99.90
60234;DHT22;49514;43.538;-5.708;2023-04-01T22:17:26;12.30;99.90
60234;DHT22;49514;43.538;-5.708;2023-04-01T22:20:26;12.30;99.90
60234;DHT22;49514;43.538;-5.708;2023-04-01T22:28:29;12.30;99.90
60234;DHT22;49514;43.538;-5.708;2023-04-01T22:31:02;12.30;99.90
60234;DHT22;49514;43.538;-5.708;2023-04-01T22:39:19;12.20;99.90
60234;DHT22;49514;43.538;-5.708;2023-04-01T22:42:29;12.10;99.90
60234;DHT22;49514;43.538;-5.708;2023-04-01T22:48:11;12.10;99.90
60234;DHT22;49514;43.538;-5.708;2023-04-01T22:50:55;12.10;99.90
60234;DHT22;49514;43.538;-5.708;2023-04-01T22:56:10;12.20;99.90
60234;DHT22;49514;43.538;-5.708;2023-04-01T22:58:46;12.20;99.90
60234;DHT22;49514;43.538;-5.708;2023-04-01T23:01:25;12.30;99.90
60234;DHT22;49514;43.538;-5.708;2023-04-01T23:03:54;12.30;99.90
60234;DHT22;49514;43.538;-5.708;2023-04-01T23:06:27;12.20;99.90
60234;DHT22;49514;43.538;-5.708;2023-04-01T23:11:59;12.10;99.90
60234;DHT22;49514;43.538;-5.708;2023-04-01T23:22:49;11.90;99.90
60234;DHT22;49514;43.538;-5.708;2023-04-01T23:25:22;12.00;99.90
60234;DHT22;49514;43.538;-5.708;2023-04-01T23:28:14;12.00;99.90
60234;DHT22;49514;43.538;-5.708;2023-04-01T23:35:58;11.90;99.90
60234;DHT22;49514;43.538;-5.708;2023-04-01T23:38:34;11.80;99.90
60234;DHT22;49514;43.538;-5.708;2023-04-01T23:41:02;11.70;99.90
60234;DHT22;49514;43.538;-5.708;2023-04-01T23:43:32;11.70;99.90
60234;DHT22;49514;43.538;-5.708;2023-04-01T23:46:02;11.70;99.90
60234;DHT22;49514;43.538;-5.708;2023-04-01T23:48:37;11.70;99.90
60234;DHT22;49514;43.538;-5.708;2023-04-01T23:51:23;11.60;99.90
60234;DHT22;49514;43.538;-5.708;2023-04-01T23:54:13;11.70;99.90
60234;DHT22;49514;43.538;-5.708;2023-04-01T23:56:50;11.60;99.90
60234;DHT22;49514;43.538;-5.708;2023-04-01T23:59:23;11.60;99.90
